This is the latest recevied weather packets stored in our database for station/object DL9LA-13. If no packets are shown the sender has not sent any weather packets the latest 10 day(s).
| Time | Temp. | Humidity | Pressure | Rain* | Wind** | Luminosity | Snow |
|---|---|---|---|---|---|---|---|
| 1777881949 | 21.11° C | 38% | 970 hPa | - | - | - | - |
| 1777880742 | 20.56° C | 39% | 970 hPa | - | - | - | - |
| 1777880139 | 21.11° C | 39% | 970 hPa | - | - | - | - |
| 1777878931 | 21.11° C | 40% | 970 hPa | - | - | - | - |
| 1777877724 | 20.56° C | 44% | 970 hPa | - | - | - | - |
| 1777877120 | 20° C | 46% | 970 hPa | - | - | - | - |
| 1777875913 | 18.33° C | 50% | 970 hPa | - | - | - | - |
| 1777875309 | 18.33° C | 51% | 970 hPa | - | - | - | - |
| 1777874706 | 17.78° C | 51% | 970 hPa | - | - | - | - |
| 1777873498 | 17.22° C | 52% | 970 hPa | - | - | - | - |
| 1777872895 | 17.22° C | 52% | 970 hPa | - | - | - | - |
| 1777871084 | 17.22° C | 49% | 970 hPa | - | - | - | - |
| 1777870480 | 17.22° C | 49% | 970 hPa | - | - | - | - |
| 1777869877 | 17.22° C | 50% | 970 hPa | - | - | - | - |
| 1777866255 | 17.22° C | 48% | 970 hPa | - | - | - | - |
| 1777865651 | 17.22° C | 47% | 970 hPa | - | - | - | - |
| 1777865047 | 17.78° C | 47% | 970 hPa | - | - | - | - |
| 1777863237 | 17.78° C | 47% | 970 hPa | - | - | - | - |
| 1777862633 | 17.78° C | 48% | 970 hPa | - | - | - | - |
| 1777861426 | 18.33° C | 46% | 970 hPa | - | - | - | - |
| 1777860218 | 18.33° C | 44% | 970 hPa | - | - | - | - |
| 1777857804 | 18.33° C | 47% | 970 hPa | - | - | - | - |
| 1777856596 | 18.33° C | 47% | 969 hPa | - | - | - | - |
| 1777855993 | 18.89° C | 47% | 969 hPa | - | - | - | - |
| 1777854786 | 18.33° C | 48% | 969 hPa | - | - | - | - |
* Rain since midnight (hover to see other rain measurements)
** Current wind speed in m/s (hover to see current wind gust speed)